Time;durP1;ratioP1;P1;durP2;ratioP2;P2;SDS_P1;SDS_P2;PMS_P1;PMS_P2;Temp;Humidity;BMP_temperature;BMP_pressure;BME280_temperature;BME280_humidity;BME280_pressure;Samples;Min_cycle;Max_cycle;Signal;HPM_P1;HPM_P2
2021/08/01 00:00:42;;;;;;;;;;;15.60;99.90;;;;;;5128927;27;20309;-85
2021/08/01 00:03:08;;;;;;;;;;;15.70;99.90;;;;;;5112308;27;19968;-85
2021/08/01 00:05:34;;;;;;;;;;;15.60;99.90;;;;;;5128406;27;19953;-85
2021/08/01 00:07:59;;;;;;;;;;;15.60;99.90;;;;;;5129134;27;19923;-85
2021/08/01 00:10:25;;;;;;;;;;;15.60;99.90;;;;;;5111966;27;20386;-85
2021/08/01 00:12:50;;;;;;;;;;;15.60;99.90;;;;;;5147597;27;20405;-85
2021/08/01 00:15:16;;;;;;;;;;;15.60;99.90;;;;;;5110023;27;19919;-85
2021/08/01 00:17:42;;;;;;;;;;;15.60;99.90;;;;;;5129117;27;19927;-85
2021/08/01 00:20:08;;;;;;;;;;;15.50;99.90;;;;;;5128620;27;20339;-85
2021/08/01 00:22:34;;;;;;;;;;;15.50;99.90;;;;;;5147608;27;20018;-85
2021/08/01 00:25:00;;;;;;;;;;;15.60;99.90;;;;;;5110594;27;19919;-85
2021/08/01 00:27:26;;;;;;;;;;;15.50;99.90;;;;;;5111902;27;19923;-85
2021/08/01 00:29:52;;;;;;;;;;;15.50;99.90;;;;;;5128917;27;19930;-85
2021/08/01 00:32:17;;;;;;;;;;;15.60;99.90;;;;;;5127905;27;19923;-85
2021/08/01 00:34:43;;;;;;;;;;;15.60;99.90;;;;;;5128814;27;19923;-86
2021/08/01 00:37:09;;;;;;;;;;;15.50;99.90;;;;;;5127924;27;20390;-85
2021/08/01 00:39:34;;;;;;;;;;;15.50;99.90;;;;;;5111882;27;20033;-86
2021/08/01 00:42:00;;;;;;;;;;;15.50;99.90;;;;;;5128312;27;19923;-85
2021/08/01 00:44:26;;;;;;;;;;;15.50;99.90;;;;;;5128381;27;19926;-86
2021/08/01 00:46:51;;;;;;;;;;;15.50;99.90;;;;;;5111051;27;19923;-86
2021/08/01 00:49:17;;;;;;;;;;;15.50;99.90;;;;;;5128277;27;20430;-85
2021/08/01 00:51:43;;;;;;;;;;;15.50;99.90;;;;;;5134953;27;19939;-85
2021/08/01 00:54:09;;;;;;;;;;;15.50;99.90;;;;;;5148972;27;20393;-86
2021/08/01 00:56:34;;;;;;;;;;;15.50;99.90;;;;;;5148602;27;20349;-85
2021/08/01 00:59:00;;;;;;;;;;;15.50;99.90;;;;;;5149152;27;19922;-85
2021/08/01 01:01:31;;;;;;;;;;;15.50;99.90;;;;;;5148336;27;20278;-85
2021/08/01 01:04:16;;;;;;;;;;;15.50;99.90;;;;;;5149133;27;20360;-85
2021/08/01 01:07:00;;;;;;;;;;;15.50;99.90;;;;;;5148285;27;19923;-86
2021/08/01 01:09:31;;;;;;;;;;;15.50;99.90;;;;;;5132101;27;19974;-86
2021/08/01 01:12:01;;;;;;;;;;;15.50;99.90;;;;;;5145737;27;19965;-86
2021/08/01 01:14:29;;;;;;;;;;;15.50;99.90;;;;;;5146966;27;19940;-85
2021/08/01 01:16:58;;;;;;;;;;;15.50;99.90;;;;;;5126807;27;19984;-86
2021/08/01 01:19:42;;;;;;;;;;;15.40;99.90;;;;;;5128269;27;20332;-86
2021/08/01 01:22:28;;;;;;;;;;;15.50;99.90;;;;;;5127687;27;19971;-85
2021/08/01 01:24:53;;;;;;;;;;;15.40;99.90;;;;;;5144588;27;20007;-85
2021/08/01 01:27:30;;;;;;;;;;;15.40;99.90;;;;;;5131489;27;20414;-85
2021/08/01 01:30:01;;;;;;;;;;;15.50;99.90;;;;;;5132128;27;19927;-85
2021/08/01 01:32:34;;;;;;;;;;;15.50;99.90;;;;;;5150700;27;19934;-85
2021/08/01 01:35:05;;;;;;;;;;;15.50;99.90;;;;;;5150706;27;19923;-86
2021/08/01 01:37:31;;;;;;;;;;;15.50;99.90;;;;;;5131532;27;19919;-86
2021/08/01 01:40:01;;;;;;;;;;;15.50;99.90;;;;;;5132247;27;20447;-88
2021/08/01 01:42:28;;;;;;;;;;;15.50;99.90;;;;;;5131949;27;19923;-86
2021/08/01 01:44:55;;;;;;;;;;;15.50;99.90;;;;;;5150439;27;19944;-86
2021/08/01 01:47:21;;;;;;;;;;;15.50;99.90;;;;;;5131022;27;20588;-86
2021/08/01 01:49:48;;;;;;;;;;;15.60;99.90;;;;;;5114540;27;19923;-86
2021/08/01 01:52:15;;;;;;;;;;;15.50;99.90;;;;;;5100787;27;19958;-85
2021/08/01 01:54:41;;;;;;;;;;;15.50;99.90;;;;;;5132023;27;19925;-87
2021/08/01 01:57:07;;;;;;;;;;;15.50;99.90;;;;;;5151426;27;20039;-88
2021/08/01 01:59:34;;;;;;;;;;;15.50;99.90;;;;;;5114814;27;20546;-88
2021/08/01 02:02:00;;;;;;;;;;;15.50;99.90;;;;;;5131917;27;19922;-87
2021/08/01 02:04:25;;;;;;;;;;;15.50;99.90;;;;;;5150284;27;19919;-88
2021/08/01 02:06:51;;;;;;;;;;;15.50;99.90;;;;;;5131640;27;19919;-88
2021/08/01 02:09:35;;;;;;;;;;;15.50;99.90;;;;;;5114006;27;19927;-88
2021/08/01 02:12:01;;;;;;;;;;;15.50;99.90;;;;;;5135391;27;19929;-88
2021/08/01 02:14:29;;;;;;;;;;;15.50;99.90;;;;;;5154186;27;20009;-88
2021/08/01 02:16:56;;;;;;;;;;;15.50;99.90;;;;;;5149045;27;20383;-88
2021/08/01 02:19:23;;;;;;;;;;;15.50;99.90;;;;;;5130111;27;20011;-88
2021/08/01 02:21:50;;;;;;;;;;;15.50;99.90;;;;;;5157637;27;20380;-88
2021/08/01 02:24:16;;;;;;;;;;;15.50;99.90;;;;;;5131184;27;19950;-88
2021/08/01 02:26:43;;;;;;;;;;;15.60;99.90;;;;;;5131253;27;20375;-87
2021/08/01 02:29:09;;;;;;;;;;;15.60;99.90;;;;;;5165963;27;19919;-89
2021/08/01 02:31:35;;;;;;;;;;;15.60;99.90;;;;;;5115919;27;19934;-88
2021/08/01 02:34:01;;;;;;;;;;;15.60;99.90;;;;;;5113743;27;20391;-88
2021/08/01 02:36:27;;;;;;;;;;;15.50;99.90;;;;;;5143341;27;19926;-88
2021/08/01 02:38:54;;;;;;;;;;;15.50;99.90;;;;;;5151647;27;19919;-88
2021/08/01 02:41:27;;;;;;;;;;;15.60;99.90;;;;;;5151196;27;19929;-88
2021/08/01 02:43:53;;;;;;;;;;;15.60;99.90;;;;;;5170315;27;20013;-88
2021/08/01 02:46:22;;;;;;;;;;;15.60;99.90;;;;;;5151447;27;20030;-88
2021/08/01 02:48:48;;;;;;;;;;;15.60;99.90;;;;;;5169586;27;19923;-88
2021/08/01 02:51:15;;;;;;;;;;;15.60;99.90;;;;;;5131915;27;20161;-88
2021/08/01 02:53:44;;;;;;;;;;;15.60;99.90;;;;;;5145187;27;19919;-88
2021/08/01 02:56:09;;;;;;;;;;;15.60;99.90;;;;;;5141478;27;19958;-89
2021/08/01 02:58:36;;;;;;;;;;;15.60;99.90;;;;;;5151366;27;20453;-88
2021/08/01 03:01:02;;;;;;;;;;;15.70;99.90;;;;;;5132732;27;19923;-88
2021/08/01 03:03:28;;;;;;;;;;;15.70;99.90;;;;;;5111932;27;19915;-87
2021/08/01 03:05:54;;;;;;;;;;;15.70;99.90;;;;;;5129452;27;19919;-88
2021/08/01 03:08:21;;;;;;;;;;;15.70;99.90;;;;;;5130317;27;20405;-88
2021/08/01 03:10:48;;;;;;;;;;;15.70;99.90;;;;;;5113533;27;19929;-88
2021/08/01 03:13:14;;;;;;;;;;;15.70;99.90;;;;;;5144970;27;19983;-88
2021/08/01 03:15:40;;;;;;;;;;;15.80;99.90;;;;;;5157276;27;20370;-89
2021/08/01 03:18:05;;;;;;;;;;;15.80;99.90;;;;;;5148936;27;20014;-89
2021/08/01 03:20:31;;;;;;;;;;;15.80;99.90;;;;;;5130141;27;19999;-89
2021/08/01 03:22:58;;;;;;;;;;;15.80;99.90;;;;;;5130686;27;20278;-89
2021/08/01 03:25:23;;;;;;;;;;;15.80;99.90;;;;;;5113058;27;19927;-89
2021/08/01 03:27:49;;;;;;;;;;;15.80;99.90;;;;;;5130448;27;19927;-88
2021/08/01 03:30:15;;;;;;;;;;;15.70;99.90;;;;;;5148705;27;19923;-88
2021/08/01 03:32:41;;;;;;;;;;;15.70;99.90;;;;;;5129898;27;20447;-89
2021/08/01 03:35:06;;;;;;;;;;;15.70;99.90;;;;;;5130580;27;19931;-89
2021/08/01 03:37:32;;;;;;;;;;;15.70;99.90;;;;;;5149501;27;20370;-90
2021/08/01 03:39:58;;;;;;;;;;;15.70;99.90;;;;;;5114292;27;19944;-91
2021/08/01 03:42:24;;;;;;;;;;;16.90;99.90;;;;;;5131024;27;19966;-91
2021/08/01 03:44:49;;;;;;;;;;;15.70;99.90;;;;;;5149598;27;19953;-91
2021/08/01 03:47:15;;;;;;;;;;;15.70;99.90;;;;;;5113805;27;19936;-90
2021/08/01 03:49:44;;;;;;;;;;;15.70;99.90;;;;;;5130482;27;19958;-91
2021/08/01 03:52:12;;;;;;;;;;;15.60;99.90;;;;;;5141382;27;19923;-91
2021/08/01 03:54:40;;;;;;;;;;;15.60;99.90;;;;;;5134926;27;19930;-92
2021/08/01 03:57:05;;;;;;;;;;;15.60;99.90;;;;;;5151792;27;19923;-90
2021/08/01 03:59:35;;;;;;;;;;;15.70;99.90;;;;;;5151906;27;20033;-91
2021/08/01 04:02:00;;;;;;;;;;;15.70;99.90;;;;;;5134036;27;19954;-91
2021/08/01 04:04:26;;;;;;;;;;;15.50;99.90;;;;;;5151220;27;19973;-90
2021/08/01 04:06:51;;;;;;;;;;;15.60;99.90;;;;;;5134455;27;19929;-91
2021/08/01 04:09:17;;;;;;;;;;;15.60;99.90;;;;;;5134351;27;19958;-90
2021/08/01 04:11:44;;;;;;;;;;;15.50;99.90;;;;;;5149772;27;19927;-91
2021/08/01 04:14:10;;;;;;;;;;;15.60;99.90;;;;;;5148620;27;19972;-91
2021/08/01 04:16:36;;;;;;;;;;;15.40;99.90;;;;;;5113730;27;19927;-91
2021/08/01 04:19:06;;;;;;;;;;;15.50;99.90;;;;;;5130744;27;19933;-91
2021/08/01 04:21:32;;;;;;;;;;;15.40;99.90;;;;;;5130493;27;19918;-91
2021/08/01 04:23:58;;;;;;;;;;;15.40;99.90;;;;;;5130578;27;19927;-91
2021/08/01 04:26:24;;;;;;;;;;;15.50;99.90;;;;;;5130681;27;19919;-90
2021/08/01 04:28:49;;;;;;;;;;;15.60;99.90;;;;;;5130204;27;19954;-91
2021/08/01 04:31:15;;;;;;;;;;;15.60;99.90;;;;;;5148745;27;19926;-90
2021/08/01 04:33:41;;;;;;;;;;;15.60;99.90;;;;;;5129826;27;19919;-90
2021/08/01 04:36:07;;;;;;;;;;;15.60;99.90;;;;;;5130146;27;19948;-90
2021/08/01 04:38:32;;;;;;;;;;;15.50;99.90;;;;;;5112851;27;19922;-90
2021/08/01 04:40:58;;;;;;;;;;;15.70;99.90;;;;;;5130399;27;19975;-90
2021/08/01 04:43:24;;;;;;;;;;;15.60;99.90;;;;;;5129272;27;19923;-90
2021/08/01 04:45:49;;;;;;;;;;;15.60;99.90;;;;;;5112687;27;19991;-90
2021/08/01 04:48:15;;;;;;;;;;;15.70;99.90;;;;;;5147854;27;19955;-89
2021/08/01 04:50:41;;;;;;;;;;;15.60;99.90;;;;;;5130843;27;20449;-89
2021/08/01 04:53:07;;;;;;;;;;;15.60;99.90;;;;;;5128880;27;19919;-90
2021/08/01 04:55:32;;;;;;;;;;;15.60;99.90;;;;;;5129019;27;19926;-89
2021/08/01 04:57:58;;;;;;;;;;;15.70;99.90;;;;;;5112432;27;19923;-89
2021/08/01 05:00:24;;;;;;;;;;;15.70;99.90;;;;;;5128867;27;20026;-89
2021/08/01 05:02:52;;;;;;;;;;;15.70;99.90;;;;;;5129401;27;20425;-89
2021/08/01 05:05:21;;;;;;;;;;;15.60;99.90;;;;;;5112038;27;19972;-89
2021/08/01 05:07:47;;;;;;;;;;;15.60;99.90;;;;;;5147901;27;19920;-90
2021/08/01 05:10:13;;;;;;;;;;;15.70;99.90;;;;;;5112245;27;19927;-89
2021/08/01 05:12:38;;;;;;;;;;;15.70;99.90;;;;;;5138197;27;19925;-89
2021/08/01 05:15:05;;;;;;;;;;;15.80;99.90;;;;;;5149483;27;19954;-89
2021/08/01 05:17:31;;;;;;;;;;;15.90;99.90;;;;;;5132814;27;20385;-90
2021/08/01 05:19:58;;;;;;;;;;;15.90;99.90;;;;;;5150146;27;20366;-89
2021/08/01 05:22:24;;;;;;;;;;;15.80;99.90;;;;;;5149892;27;19919;-90
2021/08/01 05:24:50;;;;;;;;;;;16.00;99.90;;;;;;5131843;27;19933;-88
2021/08/01 05:27:15;;;;;;;;;;;15.90;99.90;;;;;;5132663;27;19919;-90
2021/08/01 05:29:41;;;;;;;;;;;15.90;99.90;;;;;;5168449;27;19919;-89
2021/08/01 05:32:07;;;;;;;;;;;16.00;99.90;;;;;;5168929;27;19922;-90
2021/08/01 05:34:34;;;;;;;;;;;16.00;99.90;;;;;;5132889;27;20754;-90
2021/08/01 05:37:00;;;;;;;;;;;16.00;99.90;;;;;;5132071;27;19922;-89
2021/08/01 05:39:25;;;;;;;;;;;16.10;99.90;;;;;;5149723;27;20426;-90
2021/08/01 05:41:51;;;;;;;;;;;16.10;99.90;;;;;;5149979;27;19915;-90
2021/08/01 05:44:17;;;;;;;;;;;16.20;99.90;;;;;;5149666;27;19919;-90
2021/08/01 05:46:43;;;;;;;;;;;16.30;99.90;;;;;;5132468;27;19926;-90
2021/08/01 05:49:08;;;;;;;;;;;16.20;99.90;;;;;;5132400;27;19986;-91
2021/08/01 05:51:37;;;;;;;;;;;16.30;99.90;;;;;;5128195;27;19919;-92
2021/08/01 05:54:03;;;;;;;;;;;16.20;99.90;;;;;;5147281;27;19954;-92
2021/08/01 05:56:29;;;;;;;;;;;16.30;99.90;;;;;;5129313;27;20398;-92
2021/08/01 05:58:54;;;;;;;;;;;16.20;99.90;;;;;;5129738;27;19923;-91
2021/08/01 06:01:20;;;;;;;;;;;16.20;99.90;;;;;;5129859;27;20378;-93
2021/08/01 06:03:47;;;;;;;;;;;16.30;99.90;;;;;;5129838;27;20394;-92
2021/08/01 06:06:15;;;;;;;;;;;16.30;99.90;;;;;;5129910;27;19934;-92
2021/08/01 06:08:41;;;;;;;;;;;16.10;99.90;;;;;;5129623;27;19983;-93
2021/08/01 06:11:07;;;;;;;;;;;16.30;99.90;;;;;;5130235;27;19951;-92
2021/08/01 06:13:33;;;;;;;;;;;16.20;99.90;;;;;;5115829;27;19969;-91
2021/08/01 06:16:00;;;;;;;;;;;16.10;99.90;;;;;;5154262;27;20448;-92
2021/08/01 06:18:26;;;;;;;;;;;16.10;99.90;;;;;;5172177;27;19923;-92
2021/08/01 06:21:02;;;;;;;;;;;16.30;99.90;;;;;;5172710;27;19926;-92
2021/08/01 06:23:31;;;;;;;;;;;16.30;99.90;;;;;;5154416;27;19962;-92
2021/08/01 06:25:57;;;;;;;;;;;16.20;99.90;;;;;;5153701;27;19933;-92
2021/08/01 06:28:23;;;;;;;;;;;16.20;99.90;;;;;;5153447;27;20009;-92
2021/08/01 06:30:48;;;;;;;;;;;16.30;99.90;;;;;;5153979;27;19923;-93
2021/08/01 06:33:14;;;;;;;;;;;16.30;99.90;;;;;;5136527;27;20410;-92
2021/08/01 06:35:40;;;;;;;;;;;16.30;99.90;;;;;;5153886;27;19971;-93
2021/08/01 06:38:05;;;;;;;;;;;16.40;99.90;;;;;;5130914;27;19919;-93
2021/08/01 06:40:31;;;;;;;;;;;16.20;99.90;;;;;;5151320;27;19950;-92
2021/08/01 06:42:57;;;;;;;;;;;16.40;99.90;;;;;;5132640;27;20022;-93
2021/08/01 06:45:22;;;;;;;;;;;16.50;99.90;;;;;;5133000;27;19923;-93
2021/08/01 06:47:48;;;;;;;;;;;16.40;99.90;;;;;;5131772;27;20415;-92
2021/08/01 06:50:14;;;;;;;;;;;16.20;99.90;;;;;;5150173;27;20317;-92
2021/08/01 06:52:39;;;;;;;;;;;16.10;99.90;;;;;;5120931;27;20458;-92
2021/08/01 06:55:05;;;;;;;;;;;16.10;99.90;;;;;;5115214;27;19978;-91
2021/08/01 06:57:31;;;;;;;;;;;16.00;99.90;;;;;;5132450;27;19923;-93
2021/08/01 06:59:57;;;;;;;;;;;16.20;99.90;;;;;;5132199;27;19968;-92
2021/08/01 07:02:22;;;;;;;;;;;16.20;99.90;;;;;;5132579;27;19925;-92
2021/08/01 07:04:48;;;;;;;;;;;16.00;99.90;;;;;;5131964;27;19919;-92
2021/08/01 07:07:14;;;;;;;;;;;16.00;99.90;;;;;;5132415;27;19927;-90
2021/08/01 07:09:40;;;;;;;;;;;16.00;99.90;;;;;;5131986;27;20583;-92
2021/08/01 07:12:09;;;;;;;;;;;16.10;99.90;;;;;;5132924;27;20317;-93
2021/08/01 07:14:35;;;;;;;;;;;16.10;99.90;;;;;;5115329;27;19923;-92
2021/08/01 07:17:01;;;;;;;;;;;15.90;99.90;;;;;;5115377;27;19941;-92
2021/08/01 07:19:27;;;;;;;;;;;15.90;99.90;;;;;;5131677;27;20389;-92
2021/08/01 07:21:53;;;;;;;;;;;15.90;99.90;;;;;;5115126;27;19919;-89
2021/08/01 07:24:19;;;;;;;;;;;16.00;99.90;;;;;;5150517;27;19930;-92
2021/08/01 07:26:48;;;;;;;;;;;15.90;99.90;;;;;;5114374;27;19938;-92
2021/08/01 07:29:14;;;;;;;;;;;15.90;99.90;;;;;;5114664;27;19926;-90
2021/08/01 07:31:39;;;;;;;;;;;16.10;99.90;;;;;;5131990;27;19927;-92
2021/08/01 07:34:05;;;;;;;;;;;16.00;99.90;;;;;;5131748;27;19938;-92
2021/08/01 07:36:31;;;;;;;;;;;15.90;99.90;;;;;;5131398;27;19919;-89
2021/08/01 07:38:56;;;;;;;;;;;15.90;99.90;;;;;;5149577;27;20418;-91
2021/08/01 07:41:22;;;;;;;;;;;16.00;99.90;;;;;;5131377;27;20441;-91
2021/08/01 07:43:50;;;;;;;;;;;16.10;99.90;;;;;;5131147;27;19919;-91
2021/08/01 07:46:17;;;;;;;;;;;16.10;99.90;;;;;;5114357;27;19929;-91
2021/08/01 07:48:43;;;;;;;;;;;16.10;99.90;;;;;;5131041;27;19926;-91
2021/08/01 07:51:09;;;;;;;;;;;16.20;99.90;;;;;;5131009;27;19919;-91
2021/08/01 07:53:34;;;;;;;;;;;16.30;99.90;;;;;;5113716;27;19951;-91
2021/08/01 07:56:00;;;;;;;;;;;16.20;99.90;;;;;;5130826;27;19923;-91
2021/08/01 07:58:25;;;;;;;;;;;16.30;99.90;;;;;;5131074;27;19923;-91
2021/08/01 08:00:51;;;;;;;;;;;16.30;99.90;;;;;;5113116;27;19919;-90
2021/08/01 08:03:17;;;;;;;;;;;16.20;99.90;;;;;;5148988;27;19926;-91
2021/08/01 08:05:43;;;;;;;;;;;16.20;99.90;;;;;;5113797;27;19930;-90
2021/08/01 08:08:08;;;;;;;;;;;16.30;99.90;;;;;;5130794;27;20473;-91
2021/08/01 08:10:36;;;;;;;;;;;16.20;99.90;;;;;;5113192;27;19919;-91
2021/08/01 08:13:02;;;;;;;;;;;16.20;99.90;;;;;;5126167;27;19986;-90
2021/08/01 08:15:27;;;;;;;;;;;16.20;99.90;;;;;;5151864;27;20365;-91
2021/08/01 08:17:53;;;;;;;;;;;16.10;99.90;;;;;;5150675;27;19927;-91
2021/08/01 08:20:19;;;;;;;;;;;16.20;99.90;;;;;;5150990;27;19962;-91
2021/08/01 08:22:44;;;;;;;;;;;16.10;99.90;;;;;;5151095;27;19930;-91
2021/08/01 08:25:10;;;;;;;;;;;16.30;99.90;;;;;;5169587;27;20032;-90
2021/08/01 08:27:36;;;;;;;;;;;16.30;99.90;;;;;;5150789;27;19945;-90
2021/08/01 08:30:03;;;;;;;;;;;16.30;99.90;;;;;;5150423;27;20393;-90
2021/08/01 08:32:30;;;;;;;;;;;16.20;99.90;;;;;;5149939;27;20025;-90
2021/08/01 08:34:56;;;;;;;;;;;16.30;99.90;;;;;;5168598;27;20468;-89
2021/08/01 08:37:21;;;;;;;;;;;16.40;99.90;;;;;;5150435;27;19930;-89
2021/08/01 08:39:48;;;;;;;;;;;16.40;99.90;;;;;;5169095;27;19923;-90
2021/08/01 08:42:14;;;;;;;;;;;16.30;99.90;;;;;;5150115;27;20390;-90
2021/08/01 08:44:40;;;;;;;;;;;16.40;99.90;;;;;;5150818;27;20029;-90
2021/08/01 08:47:06;;;;;;;;;;;16.30;99.90;;;;;;5150457;27;20453;-90
2021/08/01 08:49:34;;;;;;;;;;;16.40;99.90;;;;;;5150510;27;19927;-90
2021/08/01 08:52:01;;;;;;;;;;;16.50;99.90;;;;;;5158830;27;20416;-89
2021/08/01 08:54:29;;;;;;;;;;;16.60;99.90;;;;;;5129583;27;19929;-89
2021/08/01 08:56:55;;;;;;;;;;;16.60;99.90;;;;;;5129392;27;19919;-89
2021/08/01 08:59:22;;;;;;;;;;;16.70;99.90;;;;;;5147880;27;19926;-89
2021/08/01 09:01:48;;;;;;;;;;;16.80;99.90;;;;;;5128593;27;20009;-90
2021/08/01 09:04:14;;;;;;;;;;;16.80;99.90;;;;;;5147673;27;20435;-89
2021/08/01 09:06:40;;;;;;;;;;;16.80;99.90;;;;;;5147528;27;20009;-89
2021/08/01 09:09:06;;;;;;;;;;;16.50;99.90;;;;;;5129113;27;19927;-89
2021/08/01 09:11:31;;;;;;;;;;;16.50;99.90;;;;;;5112034;27;20274;-89
2021/08/01 09:13:57;;;;;;;;;;;16.40;99.90;;;;;;5146738;27;19942;-88
2021/08/01 09:16:42;;;;;;;;;;;16.40;99.90;;;;;;5128830;27;20329;-88
2021/08/01 09:19:27;;;;;;;;;;;16.40;99.90;;;;;;5128699;27;20014;-89
2021/08/01 09:21:53;;;;;;;;;;;16.40;99.90;;;;;;5128529;27;19915;-88
2021/08/01 09:24:19;;;;;;;;;;;16.50;99.90;;;;;;5128085;27;19927;-88
2021/08/01 09:26:45;;;;;;;;;;;16.40;99.90;;;;;;5128147;27;19922;-87
2021/08/01 09:29:12;;;;;;;;;;;16.10;99.90;;;;;;5128319;27;19927;-88
2021/08/01 09:31:37;;;;;;;;;;;16.30;99.90;;;;;;5110760;27;19950;-88
2021/08/01 09:34:22;;;;;;;;;;;16.40;99.90;;;;;;5146249;27;20547;-88
2021/08/01 09:36:55;;;;;;;;;;;16.40;99.90;;;;;;5128469;27;19930;-87
2021/08/01 09:39:21;;;;;;;;;;;16.40;99.90;;;;;;5128455;27;19923;-87
2021/08/01 09:41:50;;;;;;;;;;;16.50;99.90;;;;;;5128486;27;19927;-87
2021/08/01 09:44:19;;;;;;;;;;;16.30;99.90;;;;;;5127385;27;20412;-87
2021/08/01 09:46:45;;;;;;;;;;;16.30;99.90;;;;;;5128863;27;20402;-87
2021/08/01 09:49:15;;;;;;;;;;;16.30;99.90;;;;;;5131723;27;19973;-87
2021/08/01 09:51:42;;;;;;;;;;;16.30;99.90;;;;;;5136067;27;19925;-90
2021/08/01 09:54:10;;;;;;;;;;;16.30;99.90;;;;;;5135234;27;19982;-90
2021/08/01 09:56:36;;;;;;;;;;;16.30;99.90;;;;;;5127951;27;20472;-90
2021/08/01 09:59:02;;;;;;;;;;;16.30;99.90;;;;;;5140931;27;19923;-88
2021/08/01 10:01:28;;;;;;;;;;;16.20;99.90;;;;;;5115193;27;20174;-89
2021/08/01 10:03:54;;;;;;;;;;;16.10;99.90;;;;;;5133209;27;19920;-89
2021/08/01 10:06:21;;;;;;;;;;;16.20;99.90;;;;;;5165943;27;19923;-89
2021/08/01 10:08:47;;;;;;;;;;;16.20;99.90;;;;;;5141354;27;20312;-89
2021/08/01 10:11:14;;;;;;;;;;;16.30;99.90;;;;;;5139475;27;19946;-90
2021/08/01 10:13:40;;;;;;;;;;;16.10;99.90;;;;;;5132101;27;19953;-88
2021/08/01 10:16:07;;;;;;;;;;;16.20;99.90;;;;;;5121244;27;19923;-89
2021/08/01 10:18:33;;;;;;;;;;;16.30;99.90;;;;;;5171156;27;20021;-89
2021/08/01 10:20:59;;;;;;;;;;;16.40;99.90;;;;;;5131093;27;20005;-88
2021/08/01 10:23:25;;;;;;;;;;;16.50;99.90;;;;;;5137585;27;19923;-89
2021/08/01 10:25:52;;;;;;;;;;;16.40;99.90;;;;;;5130147;27;19929;-89
2021/08/01 10:28:19;;;;;;;;;;;16.20;99.90;;;;;;5131188;27;19945;-89
2021/08/01 10:30:46;;;;;;;;;;;16.10;99.90;;;;;;5131560;27;19934;-89
2021/08/01 10:33:13;;;;;;;;;;;16.30;99.90;;;;;;5144450;27;19923;-89
2021/08/01 10:35:44;;;;;;;;;;;16.30;99.90;;;;;;5134347;27;20127;-89
2021/08/01 10:38:12;;;;;;;;;;;16.50;99.90;;;;;;5150075;27;19919;-89
2021/08/01 10:40:38;;;;;;;;;;;16.20;99.90;;;;;;5131928;27;19968;-89
2021/08/01 10:43:07;;;;;;;;;;;16.20;99.90;;;;;;5122659;27;19927;-89
2021/08/01 10:45:34;;;;;;;;;;;16.10;99.90;;;;;;5165351;27;19998;-90
2021/08/01 10:48:00;;;;;;;;;;;16.10;99.90;;;;;;5134321;27;19922;-88
2021/08/01 10:50:28;;;;;;;;;;;16.30;99.90;;;;;;5145956;27;20278;-90
2021/08/01 10:53:12;;;;;;;;;;;16.40;99.90;;;;;;5134482;27;19919;-89
2021/08/01 10:55:37;;;;;;;;;;;16.20;99.90;;;;;;5149216;27;19919;-89
2021/08/01 10:58:13;;;;;;;;;;;16.30;99.90;;;;;;5130654;27;19919;-89
2021/08/01 11:00:54;;;;;;;;;;;16.20;99.90;;;;;;5131168;27;19980;-88
2021/08/01 11:03:20;;;;;;;;;;;16.10;99.90;;;;;;5163694;27;19922;-90
2021/08/01 11:05:46;;;;;;;;;;;16.10;99.90;;;;;;5134819;27;19930;-89
2021/08/01 11:08:12;;;;;;;;;;;16.20;99.90;;;;;;5131304;27;19923;-90
2021/08/01 11:10:38;;;;;;;;;;;16.30;99.90;;;;;;5149822;27;20007;-90
2021/08/01 11:13:22;;;;;;;;;;;16.30;99.90;;;;;;5163432;27;19930;-90
2021/08/01 11:15:48;;;;;;;;;;;16.20;99.90;;;;;;5151978;27;20100;-90
2021/08/01 11:18:14;;;;;;;;;;;16.00;99.90;;;;;;5152520;27;20063;-90
2021/08/01 11:20:42;;;;;;;;;;;15.90;99.90;;;;;;5149776;27;19955;-89
2021/08/01 11:23:08;;;;;;;;;;;15.70;99.90;;;;;;5132418;27;19923;-90
2021/08/01 11:25:34;;;;;;;;;;;15.70;99.90;;;;;;5134228;27;20275;-91
2021/08/01 11:30:53;;;;;;;;;;;16.10;99.90;;;;;;5148963;27;19958;-89
2021/08/01 11:33:41;;;;;;;;;;;16.00;99.90;;;;;;5130235;27;20618;-88
2021/08/01 11:36:09;;;;;;;;;;;16.10;99.90;;;;;;5130666;27;19930;-90
2021/08/01 11:38:35;;;;;;;;;;;16.00;99.90;;;;;;5129646;27;20000;-88
2021/08/01 11:41:01;;;;;;;;;;;16.00;99.90;;;;;;5130389;27;20374;-86
2021/08/01 11:43:27;;;;;;;;;;;16.00;99.90;;;;;;5112540;27;19926;-88
2021/08/01 11:46:06;;;;;;;;;;;16.00;99.90;;;;;;5094826;27;19929;-87
2021/08/01 11:48:33;;;;;;;;;;;15.80;99.90;;;;;;5128059;27;20433;-87
2021/08/01 11:51:04;;;;;;;;;;;15.90;99.90;;;;;;5151398;27;19963;-87
2021/08/01 11:53:30;;;;;;;;;;;16.00;99.90;;;;;;5129426;27;20400;-84
2021/08/01 11:56:00;;;;;;;;;;;15.90;99.90;;;;;;5147474;27;19946;-85
2021/08/01 11:58:29;;;;;;;;;;;16.00;99.90;;;;;;5131846;27;19919;-87
2021/08/01 12:00:55;;;;;;;;;;;16.00;99.90;;;;;;5153039;27;19966;-88
2021/08/01 12:03:25;;;;;;;;;;;15.90;99.90;;;;;;5139014;27;19942;-92
2021/08/01 12:05:52;;;;;;;;;;;15.90;99.90;;;;;;5136967;27;19926;-91
2021/08/01 12:08:33;;;;;;;;;;;15.90;99.90;;;;;;5137357;27;19923;-88
2021/08/01 12:11:05;;;;;;;;;;;15.90;99.90;;;;;;5138202;27;19919;-90
2021/08/01 12:13:31;;;;;;;;;;;15.90;99.90;;;;;;5158008;27;20425;-91
2021/08/01 12:15:56;;;;;;;;;;;16.00;99.90;;;;;;5134754;27;19918;-90
2021/08/01 12:18:26;;;;;;;;;;;16.10;99.90;;;;;;5128981;27;19926;-94
2021/08/01 12:20:52;;;;;;;;;;;16.20;99.90;;;;;;5137035;27;19927;-95
2021/08/01 12:23:18;;;;;;;;;;;16.40;99.90;;;;;;5157237;27;19932;-93
2021/08/01 12:25:45;;;;;;;;;;;16.50;99.90;;;;;;5144118;27;19925;-94
2021/08/01 12:28:10;;;;;;;;;;;16.70;99.90;;;;;;5135870;27;19965;-90
2021/08/01 12:30:44;;;;;;;;;;;16.90;99.90;;;;;;5149575;27;19962;-92
2021/08/01 12:33:10;;;;;;;;;;;17.00;99.90;;;;;;5149801;27;19955;-88
2021/08/01 12:35:39;;;;;;;;;;;17.10;99.90;;;;;;5149832;27;19927;-86
2021/08/01 12:38:08;;;;;;;;;;;17.10;99.90;;;;;;5132934;27;20142;-90
2021/08/01 12:40:37;;;;;;;;;;;17.10;99.90;;;;;;5150633;27;19923;-92
2021/08/01 12:43:07;;;;;;;;;;;17.10;99.90;;;;;;5169043;27;20005;-90
2021/08/01 12:45:34;;;;;;;;;;;17.10;99.90;;;;;;5144650;27;19923;-90
2021/08/01 12:48:00;;;;;;;;;;;17.00;99.90;;;;;;5149757;27;19926;-91
2021/08/01 12:50:26;;;;;;;;;;;16.90;99.90;;;;;;5115975;27;20428;-96
2021/08/01 12:52:52;;;;;;;;;;;16.90;99.90;;;;;;5148318;27;19931;-92
2021/08/01 12:55:18;;;;;;;;;;;16.80;99.90;;;;;;5151654;27;20018;-94
2021/08/01 12:58:00;;;;;;;;;;;16.90;99.90;;;;;;5170333;27;19923;-94
2021/08/01 13:00:31;;;;;;;;;;;16.80;99.90;;;;;;5149734;27;19930;-92
2021/08/01 13:02:58;;;;;;;;;;;16.80;99.90;;;;;;5151326;27;19951;-92
2021/08/01 13:05:25;;;;;;;;;;;16.80;99.90;;;;;;5148750;27;19983;-91
2021/08/01 13:07:50;;;;;;;;;;;16.90;99.90;;;;;;5140175;27;19945;-92
2021/08/01 13:10:17;;;;;;;;;;;17.00;99.90;;;;;;5112479;27;20394;-94
2021/08/01 13:13:01;;;;;;;;;;;17.00;99.90;;;;;;5130024;27;19926;-95
2021/08/01 13:15:28;;;;;;;;;;;17.00;99.90;;;;;;5149356;27;19919;-92
2021/08/01 13:17:54;;;;;;;;;;;17.10;99.90;;;;;;5134794;27;19923;-92
2021/08/01 13:20:40;;;;;;;;;;;17.20;99.90;;;;;;5140322;27;20545;-88
2021/08/01 13:23:25;;;;;;;;;;;17.20;99.90;;;;;;5147944;27;20055;-88
2021/08/01 13:25:50;;;;;;;;;;;17.30;99.90;;;;;;5162047;27;19966;-89
2021/08/01 13:28:16;;;;;;;;;;;17.30;99.90;;;;;;5146002;27;19931;-89
2021/08/01 13:31:01;;;;;;;;;;;17.20;99.90;;;;;;5140936;27;19926;-89
2021/08/01 13:33:27;;;;;;;;;;;17.10;99.90;;;;;;5145286;27;20238;-89
2021/08/01 13:35:53;;;;;;;;;;;17.10;99.90;;;;;;5138338;27;19927;-89
2021/08/01 13:38:24;;;;;;;;;;;17.00;99.90;;;;;;5127216;27;19950;-90
2021/08/01 13:40:50;;;;;;;;;;;17.00;99.90;;;;;;5143821;27;19919;-89
2021/08/01 13:43:16;;;;;;;;;;;17.00;99.90;;;;;;5131377;27;19952;-91
2021/08/01 13:45:43;;;;;;;;;;;17.10;99.90;;;;;;5164869;27;19963;-89
2021/08/01 13:48:09;;;;;;;;;;;17.20;99.90;;;;;;5129886;27;19923;-90
2021/08/01 13:50:35;;;;;;;;;;;17.20;99.90;;;;;;5141218;27;20221;-88
2021/08/01 13:53:00;;;;;;;;;;;17.20;99.90;;;;;;5141737;27;20407;-90
2021/08/01 13:55:26;;;;;;;;;;;17.30;99.90;;;;;;5142723;27;19996;-90
2021/08/01 13:58:05;;;;;;;;;;;17.30;99.90;;;;;;5159399;27;19923;-89
2021/08/01 14:00:31;;;;;;;;;;;17.30;99.90;;;;;;5125235;27;19927;-90
2021/08/01 14:02:59;;;;;;;;;;;17.20;99.90;;;;;;5126591;27;19926;-91
2021/08/01 14:05:24;;;;;;;;;;;17.30;99.90;;;;;;5144357;27;19922;-91
2021/08/01 14:07:50;;;;;;;;;;;17.20;99.90;;;;;;5144164;27;20409;-90
2021/08/01 14:10:16;;;;;;;;;;;17.20;99.90;;;;;;5141110;27;20103;-91
2021/08/01 14:12:41;;;;;;;;;;;17.20;99.90;;;;;;5159266;27;19964;-91
2021/08/01 14:15:08;;;;;;;;;;;17.20;99.90;;;;;;5128133;27;19923;-90
2021/08/01 14:17:34;;;;;;;;;;;17.00;99.90;;;;;;5158976;27;19926;-88
2021/08/01 14:20:00;;;;;;;;;;;16.90;99.90;;;;;;5161084;27;19923;-91